sensor_id;sensor_type;location;lat;lon;timestamp;pressure;altitude;pressure_sealevel;temperature;humidity
53546;BME280;39432;51.902;10.844;2022-12-01T00:02:14;100516.41;;;4.31;100.00
53546;BME280;39432;51.902;10.844;2022-12-01T00:04:46;100510.00;;;4.39;100.00
53546;BME280;39432;51.902;10.844;2022-12-01T00:07:16;100514.31;;;4.12;100.00
53546;BME280;39432;51.902;10.844;2022-12-01T00:09:48;100513.69;;;4.53;100.00
53546;BME280;39432;51.902;10.844;2022-12-01T00:12:31;100509.03;;;4.04;100.00
53546;BME280;39432;51.902;10.844;2022-12-01T00:15:00;100516.91;;;3.99;100.00
53546;BME280;39432;51.902;10.844;2022-12-01T00:17:30;100520.00;;;4.17;100.00
53546;BME280;39432;51.902;10.844;2022-12-01T00:20:00;100520.75;;;3.89;100.00
53546;BME280;39432;51.902;10.844;2022-12-01T00:22:30;100516.38;;;3.88;100.00
53546;BME280;39432;51.902;10.844;2022-12-01T00:25:03;100522.59;;;4.25;100.00
53546;BME280;39432;51.902;10.844;2022-12-01T00:27:34;100523.88;;;3.86;100.00
53546;BME280;39432;51.902;10.844;2022-12-01T00:30:05;100511.25;;;4.15;100.00
53546;BME280;39432;51.902;10.844;2022-12-01T00:32:36;100518.88;;;3.90;100.00
53546;BME280;39432;51.902;10.844;2022-12-01T00:35:07;100525.28;;;4.04;100.00
53546;BME280;39432;51.902;10.844;2022-12-01T00:37:37;100515.75;;;4.08;100.00
53546;BME280;39432;51.902;10.844;2022-12-01T00:40:10;100517.72;;;3.78;100.00
53546;BME280;39432;51.902;10.844;2022-12-01T00:42:40;100521.81;;;3.37;100.00
53546;BME280;39432;51.902;10.844;2022-12-01T00:45:10;100529.63;;;3.47;100.00
53546;BME280;39432;51.902;10.844;2022-12-01T00:47:39;100529.16;;;3.58;100.00
53546;BME280;39432;51.902;10.844;2022-12-01T00:50:10;100535.16;;;4.11;100.00
53546;BME280;39432;51.902;10.844;2022-12-01T00:52:40;100541.16;;;4.07;100.00
53546;BME280;39432;51.902;10.844;2022-12-01T00:55:12;100541.78;;;3.87;100.00
53546;BME280;39432;51.902;10.844;2022-12-01T00:57:42;100538.69;;;4.12;100.00
53546;BME280;39432;51.902;10.844;2022-12-01T01:00:15;100525.88;;;4.20;100.00
53546;BME280;39432;51.902;10.844;2022-12-01T01:02:45;100538.44;;;4.28;100.00
53546;BME280;39432;51.902;10.844;2022-12-01T01:05:15;100539.22;;;4.22;100.00
53546;BME280;39432;51.902;10.844;2022-12-01T01:07:44;100523.63;;;4.03;100.00
53546;BME280;39432;51.902;10.844;2022-12-01T01:10:17;100526.34;;;4.24;100.00
53546;BME280;39432;51.902;10.844;2022-12-01T01:12:51;100535.50;;;4.02;100.00
53546;BME280;39432;51.902;10.844;2022-12-01T01:15:20;100528.78;;;3.97;100.00
53546;BME280;39432;51.902;10.844;2022-12-01T01:17:50;100530.13;;;4.08;100.00
53546;BME280;39432;51.902;10.844;2022-12-01T01:20:20;100534.56;;;4.16;100.00
53546;BME280;39432;51.902;10.844;2022-12-01T01:22:50;100539.75;;;4.32;100.00
53546;BME280;39432;51.902;10.844;2022-12-01T01:25:22;100535.69;;;4.43;100.00
53546;BME280;39432;51.902;10.844;2022-12-01T01:27:52;100535.63;;;4.36;100.00
53546;BME280;39432;51.902;10.844;2022-12-01T01:30:22;100539.88;;;4.24;100.00
53546;BME280;39432;51.902;10.844;2022-12-01T01:32:52;100532.84;;;4.30;100.00
53546;BME280;39432;51.902;10.844;2022-12-01T01:35:21;100536.41;;;4.30;100.00
53546;BME280;39432;51.902;10.844;2022-12-01T01:37:51;100537.81;;;4.47;100.00
53546;BME280;39432;51.902;10.844;2022-12-01T01:40:23;100543.34;;;4.89;100.00
53546;BME280;39432;51.902;10.844;2022-12-01T01:42:53;100529.84;;;4.67;100.00
53546;BME280;39432;51.902;10.844;2022-12-01T01:45:24;100544.00;;;4.41;100.00
53546;BME280;39432;51.902;10.844;2022-12-01T01:47:58;100543.84;;;4.49;100.00
53546;BME280;39432;51.902;10.844;2022-12-01T01:50:29;100534.06;;;4.48;100.00
53546;BME280;39432;51.902;10.844;2022-12-01T01:53:02;100533.31;;;4.61;100.00
53546;BME280;39432;51.902;10.844;2022-12-01T01:55:35;100537.38;;;4.72;100.00
53546;BME280;39432;51.902;10.844;2022-12-01T01:58:07;100542.31;;;4.62;100.00
53546;BME280;39432;51.902;10.844;2022-12-01T02:00:41;100537.66;;;4.56;100.00
53546;BME280;39432;51.902;10.844;2022-12-01T02:03:15;100534.88;;;4.70;100.00
53546;BME280;39432;51.902;10.844;2022-12-01T02:05:45;100534.13;;;4.34;100.00
53546;BME280;39432;51.902;10.844;2022-12-01T02:08:15;100536.81;;;4.34;100.00
53546;BME280;39432;51.902;10.844;2022-12-01T02:11:03;100542.19;;;4.27;100.00
53546;BME280;39432;51.902;10.844;2022-12-01T02:13:43;100539.88;;;4.45;100.00
53546;BME280;39432;51.902;10.844;2022-12-01T02:16:24;100540.03;;;4.93;100.00
53546;BME280;39432;51.902;10.844;2022-12-01T02:19:06;100540.88;;;4.94;100.00
53546;BME280;39432;51.902;10.844;2022-12-01T02:21:52;100542.72;;;4.87;100.00
53546;BME280;39432;51.902;10.844;2022-12-01T02:24:54;100543.16;;;4.90;100.00
53546;BME280;39432;51.902;10.844;2022-12-01T02:27:50;100543.25;;;4.75;100.00
53546;BME280;39432;51.902;10.844;2022-12-01T02:30:33;100542.75;;;4.44;100.00
53546;BME280;39432;51.902;10.844;2022-12-01T02:33:14;100539.16;;;4.86;100.00
53546;BME280;39432;51.902;10.844;2022-12-01T02:35:49;100533.44;;;4.74;100.00
53546;BME280;39432;51.902;10.844;2022-12-01T02:38:28;100538.38;;;5.27;100.00
53546;BME280;39432;51.902;10.844;2022-12-01T02:41:05;100541.72;;;4.66;100.00
53546;BME280;39432;51.902;10.844;2022-12-01T02:43:41;100556.69;;;4.84;100.00
53546;BME280;39432;51.902;10.844;2022-12-01T02:46:19;100550.81;;;4.59;100.00
53546;BME280;39432;51.902;10.844;2022-12-01T02:48:54;100539.81;;;5.64;100.00
53546;BME280;39432;51.902;10.844;2022-12-01T02:51:30;100553.59;;;4.22;100.00
53546;BME280;39432;51.902;10.844;2022-12-01T02:54:02;100540.31;;;4.28;100.00
53546;BME280;39432;51.902;10.844;2022-12-01T02:56:32;100543.34;;;4.39;100.00
53546;BME280;39432;51.902;10.844;2022-12-01T02:59:07;100542.19;;;4.27;100.00
53546;BME280;39432;51.902;10.844;2022-12-01T03:01:59;100543.41;;;5.30;100.00
53546;BME280;39432;51.902;10.844;2022-12-01T03:04:48;100535.84;;;5.19;100.00
53546;BME280;39432;51.902;10.844;2022-12-01T03:07:33;100536.13;;;5.78;100.00
53546;BME280;39432;51.902;10.844;2022-12-01T03:10:12;100521.84;;;4.87;100.00
53546;BME280;39432;51.902;10.844;2022-12-01T03:12:52;100531.63;;;4.32;100.00
53546;BME280;39432;51.902;10.844;2022-12-01T03:15:31;100532.31;;;4.90;100.00
53546;BME280;39432;51.902;10.844;2022-12-01T03:18:12;100536.66;;;4.57;100.00
53546;BME280;39432;51.902;10.844;2022-12-01T03:20:52;100530.91;;;5.29;100.00
53546;BME280;39432;51.902;10.844;2022-12-01T03:23:27;100528.34;;;5.21;100.00
53546;BME280;39432;51.902;10.844;2022-12-01T03:25:59;100527.56;;;4.71;100.00
53546;BME280;39432;51.902;10.844;2022-12-01T03:28:36;100526.75;;;4.70;100.00
53546;BME280;39432;51.902;10.844;2022-12-01T03:31:10;100543.03;;;3.55;100.00
53546;BME280;39432;51.902;10.844;2022-12-01T03:33:47;100547.66;;;3.91;100.00
53546;BME280;39432;51.902;10.844;2022-12-01T03:36:21;100535.66;;;4.00;100.00
53546;BME280;39432;51.902;10.844;2022-12-01T03:38:56;100545.34;;;4.09;100.00
53546;BME280;39432;51.902;10.844;2022-12-01T03:41:33;100544.38;;;3.30;100.00
53546;BME280;39432;51.902;10.844;2022-12-01T03:44:07;100547.06;;;3.44;100.00
53546;BME280;39432;51.902;10.844;2022-12-01T03:46:46;100557.97;;;3.51;100.00
53546;BME280;39432;51.902;10.844;2022-12-01T03:49:21;100557.72;;;3.31;100.00
53546;BME280;39432;51.902;10.844;2022-12-01T03:52:16;100559.09;;;4.08;100.00
53546;BME280;39432;51.902;10.844;2022-12-01T03:54:50;100552.56;;;3.51;100.00
53546;BME280;39432;51.902;10.844;2022-12-01T03:57:28;100556.78;;;3.54;100.00
53546;BME280;39432;51.902;10.844;2022-12-01T03:59:58;100558.91;;;3.29;100.00
53546;BME280;39432;51.902;10.844;2022-12-01T04:02:38;100565.34;;;3.13;100.00
53546;BME280;39432;51.902;10.844;2022-12-01T04:05:11;100570.28;;;3.54;100.00
53546;BME280;39432;51.902;10.844;2022-12-01T04:07:41;100574.03;;;3.23;100.00
53546;BME280;39432;51.902;10.844;2022-12-01T04:10:11;100563.56;;;3.35;100.00
53546;BME280;39432;51.902;10.844;2022-12-01T04:12:41;100569.84;;;3.35;100.00
53546;BME280;39432;51.902;10.844;2022-12-01T04:15:10;100571.13;;;3.10;100.00
53546;BME280;39432;51.902;10.844;2022-12-01T04:17:41;100570.56;;;3.74;100.00
53546;BME280;39432;51.902;10.844;2022-12-01T04:20:14;100570.59;;;3.95;100.00
53546;BME280;39432;51.902;10.844;2022-12-01T04:22:44;100564.88;;;4.05;100.00
53546;BME280;39432;51.902;10.844;2022-12-01T04:25:14;100569.63;;;3.66;100.00
53546;BME280;39432;51.902;10.844;2022-12-01T04:27:45;100571.41;;;3.95;100.00
53546;BME280;39432;51.902;10.844;2022-12-01T04:30:15;100570.19;;;4.13;100.00
53546;BME280;39432;51.902;10.844;2022-12-01T04:32:45;100579.59;;;3.81;100.00
53546;BME280;39432;51.902;10.844;2022-12-01T04:35:18;100569.06;;;3.71;100.00
53546;BME280;39432;51.902;10.844;2022-12-01T04:37:47;100580.88;;;4.21;100.00
53546;BME280;39432;51.902;10.844;2022-12-01T04:40:17;100573.56;;;3.64;100.00
53546;BME280;39432;51.902;10.844;2022-12-01T04:42:47;100574.03;;;4.04;100.00
53546;BME280;39432;51.902;10.844;2022-12-01T04:45:17;100570.16;;;3.91;100.00
53546;BME280;39432;51.902;10.844;2022-12-01T04:47:46;100567.47;;;3.62;100.00
53546;BME280;39432;51.902;10.844;2022-12-01T04:50:19;100568.97;;;3.35;100.00
53546;BME280;39432;51.902;10.844;2022-12-01T04:52:48;100562.28;;;3.31;100.00
53546;BME280;39432;51.902;10.844;2022-12-01T04:55:19;100571.53;;;3.36;100.00
53546;BME280;39432;51.902;10.844;2022-12-01T04:57:51;100568.16;;;3.34;100.00
53546;BME280;39432;51.902;10.844;2022-12-01T05:00:21;100572.81;;;3.11;100.00
53546;BME280;39432;51.902;10.844;2022-12-01T05:02:50;100590.25;;;3.08;100.00
53546;BME280;39432;51.902;10.844;2022-12-01T05:05:23;100580.59;;;2.76;100.00
53546;BME280;39432;51.902;10.844;2022-12-01T05:07:52;100591.19;;;3.15;100.00
53546;BME280;39432;51.902;10.844;2022-12-01T05:10:22;100595.19;;;3.34;100.00
53546;BME280;39432;51.902;10.844;2022-12-01T05:12:52;100598.56;;;3.66;100.00
53546;BME280;39432;51.902;10.844;2022-12-01T05:15:24;100597.06;;;3.19;100.00
53546;BME280;39432;51.902;10.844;2022-12-01T05:17:53;100593.53;;;3.48;100.00
53546;BME280;39432;51.902;10.844;2022-12-01T05:20:26;100597.84;;;4.08;100.00
53546;BME280;39432;51.902;10.844;2022-12-01T05:23:08;100595.59;;;3.31;100.00
53546;BME280;39432;51.902;10.844;2022-12-01T05:25:42;100600.63;;;3.64;100.00
53546;BME280;39432;51.902;10.844;2022-12-01T05:28:12;100600.78;;;3.18;100.00
53546;BME280;39432;51.902;10.844;2022-12-01T05:30:42;100597.50;;;2.93;100.00
53546;BME280;39432;51.902;10.844;2022-12-01T05:33:12;100612.16;;;3.28;100.00
53546;BME280;39432;51.902;10.844;2022-12-01T05:35:44;100614.03;;;3.28;100.00
53546;BME280;39432;51.902;10.844;2022-12-01T05:38:14;100603.97;;;3.36;100.00
53546;BME280;39432;51.902;10.844;2022-12-01T05:40:48;100605.16;;;3.34;100.00
53546;BME280;39432;51.902;10.844;2022-12-01T05:43:19;100609.34;;;3.07;100.00
53546;BME280;39432;51.902;10.844;2022-12-01T05:45:55;100613.31;;;3.49;100.00
53546;BME280;39432;51.902;10.844;2022-12-01T05:48:26;100614.50;;;3.31;100.00
53546;BME280;39432;51.902;10.844;2022-12-01T05:50:58;100613.56;;;3.09;100.00
53546;BME280;39432;51.902;10.844;2022-12-01T05:53:28;100608.78;;;3.11;100.00
53546;BME280;39432;51.902;10.844;2022-12-01T05:55:57;100609.47;;;3.13;100.00
53546;BME280;39432;51.902;10.844;2022-12-01T05:58:27;100619.69;;;3.18;100.00
53546;BME280;39432;51.902;10.844;2022-12-01T06:00:58;100603.69;;;3.46;100.00
53546;BME280;39432;51.902;10.844;2022-12-01T06:03:31;100614.78;;;3.36;100.00
53546;BME280;39432;51.902;10.844;2022-12-01T06:06:03;100607.31;;;3.09;100.00
53546;BME280;39432;51.902;10.844;2022-12-01T06:08:33;100617.44;;;3.07;100.00
53546;BME280;39432;51.902;10.844;2022-12-01T06:11:03;100624.09;;;3.19;100.00
53546;BME280;39432;51.902;10.844;2022-12-01T06:13:33;100620.25;;;2.99;100.00
53546;BME280;39432;51.902;10.844;2022-12-01T06:16:04;100612.75;;;2.63;100.00
53546;BME280;39432;51.902;10.844;2022-12-01T06:18:36;100622.44;;;2.80;100.00
53546;BME280;39432;51.902;10.844;2022-12-01T06:21:09;100625.00;;;2.74;100.00
53546;BME280;39432;51.902;10.844;2022-12-01T06:23:38;100629.59;;;3.40;100.00
53546;BME280;39432;51.902;10.844;2022-12-01T06:26:08;100629.88;;;3.46;100.00
53546;BME280;39432;51.902;10.844;2022-12-01T06:28:38;100630.88;;;3.00;100.00
53546;BME280;39432;51.902;10.844;2022-12-01T06:31:08;100644.88;;;3.18;100.00
53546;BME280;39432;51.902;10.844;2022-12-01T06:33:38;100630.91;;;3.15;100.00
53546;BME280;39432;51.902;10.844;2022-12-01T06:36:10;100640.28;;;3.04;100.00
53546;BME280;39432;51.902;10.844;2022-12-01T06:38:40;100635.78;;;2.97;100.00
53546;BME280;39432;51.902;10.844;2022-12-01T06:41:10;100644.91;;;2.96;100.00
53546;BME280;39432;51.902;10.844;2022-12-01T06:43:40;100646.03;;;3.54;100.00
53546;BME280;39432;51.902;10.844;2022-12-01T06:46:09;100640.47;;;3.03;100.00
53546;BME280;39432;51.902;10.844;2022-12-01T06:48:39;100641.38;;;3.33;100.00
53546;BME280;39432;51.902;10.844;2022-12-01T06:51:12;100651.09;;;3.04;100.00
53546;BME280;39432;51.902;10.844;2022-12-01T06:53:41;100649.88;;;3.07;100.00
53546;BME280;39432;51.902;10.844;2022-12-01T06:56:11;100655.28;;;3.07;100.00
53546;BME280;39432;51.902;10.844;2022-12-01T06:58:42;100653.41;;;3.30;100.00
53546;BME280;39432;51.902;10.844;2022-12-01T07:01:12;100658.13;;;2.90;100.00
53546;BME280;39432;51.902;10.844;2022-12-01T07:03:42;100663.75;;;3.27;100.00
53546;BME280;39432;51.902;10.844;2022-12-01T07:06:18;100661.50;;;2.93;100.00
53546;BME280;39432;51.902;10.844;2022-12-01T07:08:47;100664.00;;;3.17;100.00
53546;BME280;39432;51.902;10.844;2022-12-01T07:11:17;100668.22;;;2.51;100.00
53546;BME280;39432;51.902;10.844;2022-12-01T07:13:47;100668.50;;;2.87;100.00
53546;BME280;39432;51.902;10.844;2022-12-01T07:16:17;100670.88;;;3.05;100.00
53546;BME280;39432;51.902;10.844;2022-12-01T07:18:48;100676.94;;;2.84;100.00
53546;BME280;39432;51.902;10.844;2022-12-01T07:21:21;100675.53;;;3.11;100.00
53546;BME280;39432;51.902;10.844;2022-12-01T07:23:51;100681.88;;;2.80;100.00
53546;BME280;39432;51.902;10.844;2022-12-01T07:26:20;100679.31;;;3.02;100.00
53546;BME280;39432;51.902;10.844;2022-12-01T07:28:51;100685.75;;;3.38;100.00
53546;BME280;39432;51.902;10.844;2022-12-01T07:31:21;100679.13;;;3.26;100.00
53546;BME280;39432;51.902;10.844;2022-12-01T07:33:54;100687.34;;;2.72;100.00
53546;BME280;39432;51.902;10.844;2022-12-01T07:36:26;100690.44;;;2.61;100.00
53546;BME280;39432;51.902;10.844;2022-12-01T07:38:57;100692.72;;;2.95;100.00
53546;BME280;39432;51.902;10.844;2022-12-01T07:41:27;100695.56;;;3.39;100.00
53546;BME280;39432;51.902;10.844;2022-12-01T07:43:57;100695.03;;;2.83;100.00
53546;BME280;39432;51.902;10.844;2022-12-01T07:46:27;100692.50;;;3.05;100.00
53546;BME280;39432;51.902;10.844;2022-12-01T07:48:57;100690.44;;;2.84;100.00
53546;BME280;39432;51.902;10.844;2022-12-01T07:51:30;100693.47;;;2.66;100.00
53546;BME280;39432;51.902;10.844;2022-12-01T07:54:01;100693.88;;;3.01;100.00
53546;BME280;39432;51.902;10.844;2022-12-01T07:56:32;100700.91;;;3.10;100.00
53546;BME280;39432;51.902;10.844;2022-12-01T07:59:03;100692.91;;;2.94;100.00
53546;BME280;39432;51.902;10.844;2022-12-01T08:01:33;100690.94;;;2.87;100.00
53546;BME280;39432;51.902;10.844;2022-12-01T08:04:10;100704.25;;;3.12;100.00
53546;BME280;39432;51.902;10.844;2022-12-01T08:06:42;100702.53;;;2.73;100.00
53546;BME280;39432;51.902;10.844;2022-12-01T08:09:12;100698.03;;;2.88;100.00
53546;BME280;39432;51.902;10.844;2022-12-01T08:11:41;100700.44;;;2.83;100.00
53546;BME280;39432;51.902;10.844;2022-12-01T08:14:11;100703.88;;;2.69;100.00
53546;BME280;39432;51.902;10.844;2022-12-01T08:16:42;100702.28;;;2.60;100.00
53546;BME280;39432;51.902;10.844;2022-12-01T08:19:11;100706.97;;;2.66;100.00
53546;BME280;39432;51.902;10.844;2022-12-01T08:21:44;100703.44;;;2.88;100.00
53546;BME280;39432;51.902;10.844;2022-12-01T08:24:14;100704.03;;;2.99;100.00
53546;BME280;39432;51.902;10.844;2022-12-01T08:26:43;100702.22;;;2.68;100.00
53546;BME280;39432;51.902;10.844;2022-12-01T08:29:13;100710.16;;;2.93;100.00
53546;BME280;39432;51.902;10.844;2022-12-01T08:31:46;100716.19;;;3.03;100.00
53546;BME280;39432;51.902;10.844;2022-12-01T08:34:16;100705.72;;;3.37;100.00
53546;BME280;39432;51.902;10.844;2022-12-01T08:36:48;100715.19;;;2.96;100.00
53546;BME280;39432;51.902;10.844;2022-12-01T08:39:20;100712.31;;;2.74;100.00
53546;BME280;39432;51.902;10.844;2022-12-01T08:41:49;100712.44;;;3.04;100.00
53546;BME280;39432;51.902;10.844;2022-12-01T08:44:19;100713.72;;;2.93;100.00
53546;BME280;39432;51.902;10.844;2022-12-01T08:46:49;100720.72;;;2.79;100.00
53546;BME280;39432;51.902;10.844;2022-12-01T08:49:20;100720.38;;;2.51;100.00
53546;BME280;39432;51.902;10.844;2022-12-01T08:51:53;100717.88;;;2.50;100.00
53546;BME280;39432;51.902;10.844;2022-12-01T08:54:22;100720.88;;;2.86;100.00
53546;BME280;39432;51.902;10.844;2022-12-01T08:56:52;100728.28;;;2.61;100.00
53546;BME280;39432;51.902;10.844;2022-12-01T08:59:22;100714.94;;;3.28;100.00
53546;BME280;39432;51.902;10.844;2022-12-01T09:01:51;100718.44;;;3.14;100.00
53546;BME280;39432;51.902;10.844;2022-12-01T09:04:24;100718.16;;;3.61;100.00
53546;BME280;39432;51.902;10.844;2022-12-01T09:06:58;100710.72;;;3.78;100.00
53546;BME280;39432;51.902;10.844;2022-12-01T09:09:28;100705.31;;;4.08;100.00
53546;BME280;39432;51.902;10.844;2022-12-01T09:11:58;100702.63;;;3.40;100.00
53546;BME280;39432;51.902;10.844;2022-12-01T09:14:28;100708.19;;;3.62;100.00
53546;BME280;39432;51.902;10.844;2022-12-01T09:16:58;100705.13;;;3.94;100.00
53546;BME280;39432;51.902;10.844;2022-12-01T09:19:28;100700.22;;;3.46;100.00
53546;BME280;39432;51.902;10.844;2022-12-01T09:22:01;100696.59;;;3.68;100.00
53546;BME280;39432;51.902;10.844;2022-12-01T09:24:32;100702.56;;;3.49;100.00
53546;BME280;39432;51.902;10.844;2022-12-01T09:27:02;100704.47;;;3.63;100.00
53546;BME280;39432;51.902;10.844;2022-12-01T09:29:32;100699.59;;;3.58;100.00
53546;BME280;39432;51.902;10.844;2022-12-01T09:32:02;100703.91;;;3.15;100.00
53546;BME280;39432;51.902;10.844;2022-12-01T09:34:32;100704.06;;;3.36;100.00
53546;BME280;39432;51.902;10.844;2022-12-01T09:37:04;100698.63;;;3.36;100.00
53546;BME280;39432;51.902;10.844;2022-12-01T09:39:34;100708.50;;;2.92;100.00
53546;BME280;39432;51.902;10.844;2022-12-01T09:42:06;100706.75;;;3.36;100.00
53546;BME280;39432;51.902;10.844;2022-12-01T09:44:40;100709.16;;;3.31;100.00
53546;BME280;39432;51.902;10.844;2022-12-01T09:47:15;100714.47;;;3.39;100.00
53546;BME280;39432;51.902;10.844;2022-12-01T09:49:49;100711.97;;;3.38;100.00
53546;BME280;39432;51.902;10.844;2022-12-01T09:52:24;100710.50;;;3.35;100.00
53546;BME280;39432;51.902;10.844;2022-12-01T09:54:57;100700.75;;;3.26;100.00
53546;BME280;39432;51.902;10.844;2022-12-01T09:57:30;100701.88;;;2.71;100.00
53546;BME280;39432;51.902;10.844;2022-12-01T10:00:04;100696.81;;;3.14;100.00
53546;BME280;39432;51.902;10.844;2022-12-01T10:02:43;100698.41;;;3.76;100.00
53546;BME280;39432;51.902;10.844;2022-12-01T10:05:19;100695.66;;;3.31;100.00
53546;BME280;39432;51.902;10.844;2022-12-01T10:07:55;100697.06;;;3.57;100.00
53546;BME280;39432;51.902;10.844;2022-12-01T10:10:30;100692.50;;;3.05;100.00
53546;BME280;39432;51.902;10.844;2022-12-01T10:13:01;100686.75;;;3.23;100.00
53546;BME280;39432;51.902;10.844;2022-12-01T10:15:38;100678.59;;;3.90;100.00
53546;BME280;39432;51.902;10.844;2022-12-01T10:18:19;100677.84;;;3.66;100.00
53546;BME280;39432;51.902;10.844;2022-12-01T10:20:56;100675.63;;;3.70;100.00
53546;BME280;39432;51.902;10.844;2022-12-01T10:23:43;100674.13;;;3.67;100.00
53546;BME280;39432;51.902;10.844;2022-12-01T10:26:20;100678.72;;;3.96;100.00
53546;BME280;39432;51.902;10.844;2022-12-01T10:29:09;100674.31;;;3.66;100.00
53546;BME280;39432;51.902;10.844;2022-12-01T10:31:51;100674.03;;;3.61;100.00
53546;BME280;39432;51.902;10.844;2022-12-01T10:34:23;100671.63;;;3.66;100.00
53546;BME280;39432;51.902;10.844;2022-12-01T10:36:54;100676.16;;;3.51;100.00
53546;BME280;39432;51.902;10.844;2022-12-01T10:39:29;100677.03;;;3.66;100.00
53546;BME280;39432;51.902;10.844;2022-12-01T10:42:06;100672.81;;;3.49;100.00
53546;BME280;39432;51.902;10.844;2022-12-01T10:44:36;100673.38;;;3.88;100.00
53546;BME280;39432;51.902;10.844;2022-12-01T10:47:14;100673.47;;;3.36;100.00
53546;BME280;39432;51.902;10.844;2022-12-01T10:49:46;100660.78;;;3.66;100.00
53546;BME280;39432;51.902;10.844;2022-12-01T10:52:33;100666.38;;;3.50;100.00
53546;BME280;39432;51.902;10.844;2022-12-01T10:55:24;100669.53;;;4.12;100.00
53546;BME280;39432;51.902;10.844;2022-12-01T10:57:56;100659.31;;;3.63;100.00
53546;BME280;39432;51.902;10.844;2022-12-01T11:00:37;100647.72;;;3.69;100.00
53546;BME280;39432;51.902;10.844;2022-12-01T11:03:28;100654.34;;;3.96;100.00
53546;BME280;39432;51.902;10.844;2022-12-01T11:06:00;100662.84;;;3.93;100.00
53546;BME280;39432;51.902;10.844;2022-12-01T11:08:37;100651.31;;;4.21;100.00
53546;BME280;39432;51.902;10.844;2022-12-01T11:11:23;100650.16;;;3.64;100.00
53546;BME280;39432;51.902;10.844;2022-12-01T11:13:54;100643.69;;;3.51;100.00
53546;BME280;39432;51.902;10.844;2022-12-01T11:16:40;100636.94;;;3.17;100.00
53546;BME280;39432;51.902;10.844;2022-12-01T11:19:25;100641.66;;;3.38;100.00
53546;BME280;39432;51.902;10.844;2022-12-01T11:21:58;100634.47;;;3.75;100.00
53546;BME280;39432;51.902;10.844;2022-12-01T11:24:40;100639.91;;;3.75;100.00
53546;BME280;39432;51.902;10.844;2022-12-01T11:27:19;100639.50;;;3.92;100.00
53546;BME280;39432;51.902;10.844;2022-12-01T11:29:51;100640.25;;;3.42;100.00
53546;BME280;39432;51.902;10.844;2022-12-01T11:32:25;100636.16;;;3.90;100.00
53546;BME280;39432;51.902;10.844;2022-12-01T11:34:57;100640.59;;;4.13;100.00
53546;BME280;39432;51.902;10.844;2022-12-01T11:37:30;100636.06;;;3.69;100.00
53546;BME280;39432;51.902;10.844;2022-12-01T11:40:13;100639.78;;;3.97;100.00
53546;BME280;39432;51.902;10.844;2022-12-01T11:42:50;100629.50;;;4.08;100.00
53546;BME280;39432;51.902;10.844;2022-12-01T11:45:27;100632.69;;;3.96;100.00
53546;BME280;39432;51.902;10.844;2022-12-01T11:48:04;100628.41;;;3.87;100.00
53546;BME280;39432;51.902;10.844;2022-12-01T11:50:37;100629.34;;;3.65;100.00
53546;BME280;39432;51.902;10.844;2022-12-01T11:53:25;100628.41;;;3.87;100.00
53546;BME280;39432;51.902;10.844;2022-12-01T11:56:15;100630.53;;;3.62;100.00
53546;BME280;39432;51.902;10.844;2022-12-01T11:58:50;100633.72;;;3.81;100.00
53546;BME280;39432;51.902;10.844;2022-12-01T12:01:33;100639.34;;;4.15;100.00
53546;BME280;39432;51.902;10.844;2022-12-01T12:04:16;100629.09;;;4.11;100.00
53546;BME280;39432;51.902;10.844;2022-12-01T12:06:55;100623.75;;;3.52;100.00
53546;BME280;39432;51.902;10.844;2022-12-01T12:09:45;100624.28;;;3.62;100.00
53546;BME280;39432;51.902;10.844;2022-12-01T12:12:28;100628.22;;;3.74;100.00
53546;BME280;39432;51.902;10.844;2022-12-01T12:15:14;100634.56;;;3.81;100.00
53546;BME280;39432;51.902;10.844;2022-12-01T12:17:58;100630.81;;;3.82;100.00
53546;BME280;39432;51.902;10.844;2022-12-01T12:20:36;100634.50;;;4.11;100.00
53546;BME280;39432;51.902;10.844;2022-12-01T12:26:22;100627.50;;;4.16;100.00
53546;BME280;39432;51.902;10.844;2022-12-01T12:29:06;100626.06;;;4.35;100.00
53546;BME280;39432;51.902;10.844;2022-12-01T12:31:58;100627.59;;;4.44;100.00
53546;BME280;39432;51.902;10.844;2022-12-01T12:34:43;100622.25;;;3.34;100.00
53546;BME280;39432;51.902;10.844;2022-12-01T12:37:19;100619.63;;;3.56;100.00
53546;BME280;39432;51.902;10.844;2022-12-01T12:40:24;100629.06;;;3.60;100.00
53546;BME280;39432;51.902;10.844;2022-12-01T12:43:07;100624.75;;;3.51;100.00
53546;BME280;39432;51.902;10.844;2022-12-01T12:45:53;100626.13;;;4.06;100.00
53546;BME280;39432;51.902;10.844;2022-12-01T12:48:39;100629.63;;;4.21;100.00
53546;BME280;39432;51.902;10.844;2022-12-01T12:51:35;100632.38;;;4.06;100.00
53546;BME280;39432;51.902;10.844;2022-12-01T12:54:15;100634.22;;;4.06;100.00
53546;BME280;39432;51.902;10.844;2022-12-01T12:56:51;100636.25;;;3.82;100.00
53546;BME280;39432;51.902;10.844;2022-12-01T12:59:26;100629.22;;;3.29;100.00
53546;BME280;39432;51.902;10.844;2022-12-01T13:01:59;100635.56;;;3.95;100.00
53546;BME280;39432;51.902;10.844;2022-12-01T13:04:40;100634.94;;;3.78;100.00
53546;BME280;39432;51.902;10.844;2022-12-01T13:07:22;100633.66;;;3.74;100.00
53546;BME280;39432;51.902;10.844;2022-12-01T13:09:57;100627.66;;;3.64;100.00
53546;BME280;39432;51.902;10.844;2022-12-01T13:12:31;100629.50;;;3.78;100.00
53546;BME280;39432;51.902;10.844;2022-12-01T13:15:13;100628.78;;;4.57;100.00
53546;BME280;39432;51.902;10.844;2022-12-01T13:17:45;100616.91;;;4.79;100.00
53546;BME280;39432;51.902;10.844;2022-12-01T13:20:21;100614.19;;;4.36;100.00